sensor_id;sensor_type;location;lat;lon;timestamp;P1;durP1;ratioP1;P2;durP2;ratioP2
20067;SDS011;10194;50.824;7.134;2023-04-01T00:01:05;151.17;;;107.67;;
20067;SDS011;10194;50.824;7.134;2023-04-01T00:03:32;150.53;;;107.10;;
20067;SDS011;10194;50.824;7.134;2023-04-01T00:05:58;154.60;;;109.67;;
20067;SDS011;10194;50.824;7.134;2023-04-01T00:08:26;153.83;;;110.07;;
20067;SDS011;10194;50.824;7.134;2023-04-01T00:10:52;154.43;;;108.87;;
20067;SDS011;10194;50.824;7.134;2023-04-01T00:13:19;152.70;;;108.40;;
20067;SDS011;10194;50.824;7.134;2023-04-01T00:15:46;151.73;;;105.83;;
20067;SDS011;10194;50.824;7.134;2023-04-01T00:18:12;154.27;;;111.73;;
20067;SDS011;10194;50.824;7.134;2023-04-01T00:20:39;151.40;;;109.00;;
20067;SDS011;10194;50.824;7.134;2023-04-01T00:23:10;150.57;;;110.87;;
20067;SDS011;10194;50.824;7.134;2023-04-01T00:25:36;152.07;;;106.57;;
20067;SDS011;10194;50.824;7.134;2023-04-01T00:28:02;152.97;;;108.90;;
20067;SDS011;10194;50.824;7.134;2023-04-01T00:30:28;148.77;;;102.50;;
20067;SDS011;10194;50.824;7.134;2023-04-01T00:32:53;145.30;;;93.90;;
20067;SDS011;10194;50.824;7.134;2023-04-01T00:35:19;148.00;;;96.50;;
20067;SDS011;10194;50.824;7.134;2023-04-01T00:37:45;146.07;;;92.67;;
20067;SDS011;10194;50.824;7.134;2023-04-01T00:40:28;147.10;;;94.67;;
20067;SDS011;10194;50.824;7.134;2023-04-01T00:43:02;144.63;;;93.97;;
20067;SDS011;10194;50.824;7.134;2023-04-01T00:45:39;142.93;;;91.10;;
20067;SDS011;10194;50.824;7.134;2023-04-01T00:48:09;143.37;;;95.33;;
20067;SDS011;10194;50.824;7.134;2023-04-01T00:50:40;145.83;;;96.53;;
20067;SDS011;10194;50.824;7.134;2023-04-01T00:53:11;143.30;;;93.47;;
20067;SDS011;10194;50.824;7.134;2023-04-01T00:55:39;140.70;;;91.00;;
20067;SDS011;10194;50.824;7.134;2023-04-01T00:58:14;145.60;;;95.93;;
20067;SDS011;10194;50.824;7.134;2023-04-01T01:00:43;145.47;;;94.70;;
20067;SDS011;10194;50.824;7.134;2023-04-01T01:03:11;144.87;;;95.77;;
20067;SDS011;10194;50.824;7.134;2023-04-01T01:08:54;149.63;;;109.27;;
20067;SDS011;10194;50.824;7.134;2023-04-01T01:11:46;153.73;;;114.27;;
20067;SDS011;10194;50.824;7.134;2023-04-01T01:17:15;150.23;;;111.17;;
20067;SDS011;10194;50.824;7.134;2023-04-01T01:19:53;152.73;;;114.30;;
20067;SDS011;10194;50.824;7.134;2023-04-01T01:37:55;151.67;;;112.20;;
20067;SDS011;10194;50.824;7.134;2023-04-01T01:40:26;155.30;;;115.17;;
20067;SDS011;10194;50.824;7.134;2023-04-01T01:42:55;152.00;;;113.30;;
20067;SDS011;10194;50.824;7.134;2023-04-01T01:45:26;150.43;;;109.97;;
20067;SDS011;10194;50.824;7.134;2023-04-01T01:47:52;151.43;;;114.40;;
20067;SDS011;10194;50.824;7.134;2023-04-01T01:50:20;149.63;;;108.10;;
20067;SDS011;10194;50.824;7.134;2023-04-01T01:52:48;154.53;;;114.87;;
20067;SDS011;10194;50.824;7.134;2023-04-01T01:57:59;153.90;;;118.33;;
20067;SDS011;10194;50.824;7.134;2023-04-01T02:00:56;161.10;;;132.57;;
20067;SDS011;10194;50.824;7.134;2023-04-01T02:03:29;157.07;;;123.17;;
20067;SDS011;10194;50.824;7.134;2023-04-01T02:05:59;157.23;;;114.83;;
20067;SDS011;10194;50.824;7.134;2023-04-01T02:08:39;155.10;;;118.63;;
20067;SDS011;10194;50.824;7.134;2023-04-01T02:11:22;156.03;;;120.47;;
20067;SDS011;10194;50.824;7.134;2023-04-01T02:14:05;155.80;;;120.57;;
20067;SDS011;10194;50.824;7.134;2023-04-01T02:16:51;156.13;;;117.27;;
20067;SDS011;10194;50.824;7.134;2023-04-01T02:19:31;158.57;;;126.73;;
20067;SDS011;10194;50.824;7.134;2023-04-01T02:22:26;156.87;;;122.03;;
20067;SDS011;10194;50.824;7.134;2023-04-01T02:25:04;157.10;;;122.77;;
20067;SDS011;10194;50.824;7.134;2023-04-01T02:27:37;159.37;;;127.43;;
20067;SDS011;10194;50.824;7.134;2023-04-01T02:30:05;155.53;;;116.60;;
20067;SDS011;10194;50.824;7.134;2023-04-01T02:32:33;152.83;;;117.47;;
20067;SDS011;10194;50.824;7.134;2023-04-01T02:35:02;154.77;;;117.27;;
20067;SDS011;10194;50.824;7.134;2023-04-01T02:37:37;153.13;;;116.07;;
20067;SDS011;10194;50.824;7.134;2023-04-01T02:40:07;156.40;;;116.63;;
20067;SDS011;10194;50.824;7.134;2023-04-01T02:42:36;153.43;;;117.33;;
20067;SDS011;10194;50.824;7.134;2023-04-01T02:45:02;159.53;;;128.10;;
20067;SDS011;10194;50.824;7.134;2023-04-01T02:47:30;158.23;;;124.23;;
20067;SDS011;10194;50.824;7.134;2023-04-01T02:49:56;159.23;;;128.43;;
20067;SDS011;10194;50.824;7.134;2023-04-01T02:52:25;157.63;;;125.83;;
20067;SDS011;10194;50.824;7.134;2023-04-01T02:54:52;157.97;;;127.57;;
20067;SDS011;10194;50.824;7.134;2023-04-01T02:57:20;155.80;;;120.20;;
20067;SDS011;10194;50.824;7.134;2023-04-01T02:59:46;160.40;;;131.80;;
20067;SDS011;10194;50.824;7.134;2023-04-01T03:02:12;162.97;;;141.30;;
20067;SDS011;10194;50.824;7.134;2023-04-01T03:04:39;164.37;;;138.43;;
20067;SDS011;10194;50.824;7.134;2023-04-01T03:07:05;161.67;;;135.50;;
20067;SDS011;10194;50.824;7.134;2023-04-01T03:09:31;162.80;;;139.30;;
20067;SDS011;10194;50.824;7.134;2023-04-01T03:11:56;162.57;;;133.77;;
20067;SDS011;10194;50.824;7.134;2023-04-01T03:14:22;161.93;;;137.63;;
20067;SDS011;10194;50.824;7.134;2023-04-01T03:16:48;160.07;;;127.87;;
20067;SDS011;10194;50.824;7.134;2023-04-01T03:19:14;157.43;;;127.27;;
20067;SDS011;10194;50.824;7.134;2023-04-01T03:21:39;163.17;;;138.90;;
20067;SDS011;10194;50.824;7.134;2023-04-01T03:24:05;163.27;;;142.23;;
20067;SDS011;10194;50.824;7.134;2023-04-01T03:26:32;175.70;;;156.87;;
20067;SDS011;10194;50.824;7.134;2023-04-01T03:29:01;181.37;;;162.30;;
20067;SDS011;10194;50.824;7.134;2023-04-01T03:31:27;169.83;;;151.30;;
20067;SDS011;10194;50.824;7.134;2023-04-01T03:33:53;170.70;;;151.87;;
20067;SDS011;10194;50.824;7.134;2023-04-01T03:36:19;166.87;;;147.40;;
20067;SDS011;10194;50.824;7.134;2023-04-01T03:38:45;166.63;;;143.70;;
20067;SDS011;10194;50.824;7.134;2023-04-01T03:41:12;182.73;;;163.43;;
20067;SDS011;10194;50.824;7.134;2023-04-01T03:43:41;170.47;;;151.83;;
20067;SDS011;10194;50.824;7.134;2023-04-01T03:46:08;180.63;;;161.10;;
20067;SDS011;10194;50.824;7.134;2023-04-01T03:48:34;170.30;;;151.67;;
20067;SDS011;10194;50.824;7.134;2023-04-01T03:50:59;172.77;;;153.90;;
20067;SDS011;10194;50.824;7.134;2023-04-01T03:53:25;171.87;;;152.40;;
20067;SDS011;10194;50.824;7.134;2023-04-01T03:55:52;180.53;;;161.23;;
20067;SDS011;10194;50.824;7.134;2023-04-01T03:58:18;174.57;;;155.27;;
20067;SDS011;10194;50.824;7.134;2023-04-01T04:00:44;170.47;;;151.60;;
20067;SDS011;10194;50.824;7.134;2023-04-01T04:03:10;162.90;;;137.27;;
20067;SDS011;10194;50.824;7.134;2023-04-01T04:05:36;163.17;;;141.80;;
20067;SDS011;10194;50.824;7.134;2023-04-01T04:08:02;164.10;;;139.47;;
20067;SDS011;10194;50.824;7.134;2023-04-01T04:10:29;166.00;;;142.90;;
20067;SDS011;10194;50.824;7.134;2023-04-01T04:12:55;168.63;;;148.03;;
20067;SDS011;10194;50.824;7.134;2023-04-01T04:15:21;173.10;;;154.20;;
20067;SDS011;10194;50.824;7.134;2023-04-01T04:17:47;175.03;;;156.00;;
20067;SDS011;10194;50.824;7.134;2023-04-01T04:20:13;168.33;;;149.10;;
20067;SDS011;10194;50.824;7.134;2023-04-01T04:22:40;166.77;;;147.33;;
20067;SDS011;10194;50.824;7.134;2023-04-01T04:25:06;167.80;;;148.30;;
20067;SDS011;10194;50.824;7.134;2023-04-01T04:27:32;165.80;;;143.87;;
20067;SDS011;10194;50.824;7.134;2023-04-01T04:29:58;168.27;;;147.13;;
20067;SDS011;10194;50.824;7.134;2023-04-01T04:32:24;159.90;;;135.63;;
20067;SDS011;10194;50.824;7.134;2023-04-01T04:34:50;158.27;;;130.03;;
20067;SDS011;10194;50.824;7.134;2023-04-01T04:37:16;158.03;;;127.33;;
20067;SDS011;10194;50.824;7.134;2023-04-01T04:39:41;159.23;;;128.37;;
20067;SDS011;10194;50.824;7.134;2023-04-01T04:42:07;165.87;;;139.70;;
20067;SDS011;10194;50.824;7.134;2023-04-01T04:44:33;165.70;;;143.13;;
20067;SDS011;10194;50.824;7.134;2023-04-01T04:46:58;163.60;;;137.67;;
20067;SDS011;10194;50.824;7.134;2023-04-01T04:49:24;166.13;;;140.40;;
20067;SDS011;10194;50.824;7.134;2023-04-01T04:51:50;172.07;;;151.67;;
20067;SDS011;10194;50.824;7.134;2023-04-01T04:54:17;174.63;;;155.63;;
20067;SDS011;10194;50.824;7.134;2023-04-01T04:56:43;178.47;;;159.17;;
20067;SDS011;10194;50.824;7.134;2023-04-01T04:59:08;179.03;;;159.60;;
20067;SDS011;10194;50.824;7.134;2023-04-01T05:01:34;171.67;;;152.53;;
20067;SDS011;10194;50.824;7.134;2023-04-01T05:04:00;177.23;;;157.93;;
20067;SDS011;10194;50.824;7.134;2023-04-01T05:06:26;169.40;;;149.00;;
20067;SDS011;10194;50.824;7.134;2023-04-01T05:08:54;173.53;;;154.30;;
20067;SDS011;10194;50.824;7.134;2023-04-01T05:11:21;165.87;;;145.13;;
20067;SDS011;10194;50.824;7.134;2023-04-01T05:13:47;171.17;;;150.17;;
20067;SDS011;10194;50.824;7.134;2023-04-01T05:16:15;162.83;;;138.83;;
20067;SDS011;10194;50.824;7.134;2023-04-01T05:18:44;161.90;;;134.83;;
20067;SDS011;10194;50.824;7.134;2023-04-01T05:21:10;158.40;;;130.13;;
20067;SDS011;10194;50.824;7.134;2023-04-01T05:23:38;161.33;;;136.23;;
20067;SDS011;10194;50.824;7.134;2023-04-01T05:26:08;162.97;;;132.90;;
20067;SDS011;10194;50.824;7.134;2023-04-01T05:28:37;158.63;;;130.47;;
20067;SDS011;10194;50.824;7.134;2023-04-01T05:31:03;160.30;;;132.03;;
20067;SDS011;10194;50.824;7.134;2023-04-01T05:33:31;163.83;;;140.63;;
20067;SDS011;10194;50.824;7.134;2023-04-01T05:35:57;162.63;;;135.37;;
20067;SDS011;10194;50.824;7.134;2023-04-01T05:38:41;160.53;;;133.80;;
20067;SDS011;10194;50.824;7.134;2023-04-01T05:41:08;158.53;;;128.67;;
20067;SDS011;10194;50.824;7.134;2023-04-01T05:43:37;158.50;;;126.87;;
20067;SDS011;10194;50.824;7.134;2023-04-01T05:46:05;163.60;;;136.57;;
20067;SDS011;10194;50.824;7.134;2023-04-01T05:48:30;154.17;;;123.37;;
20067;SDS011;10194;50.824;7.134;2023-04-01T05:50:58;154.83;;;118.47;;
20067;SDS011;10194;50.824;7.134;2023-04-01T05:53:24;152.73;;;114.60;;
20067;SDS011;10194;50.824;7.134;2023-04-01T05:55:50;152.50;;;115.87;;
20067;SDS011;10194;50.824;7.134;2023-04-01T05:58:16;156.53;;;125.50;;
20067;SDS011;10194;50.824;7.134;2023-04-01T06:00:41;159.20;;;128.60;;
20067;SDS011;10194;50.824;7.134;2023-04-01T06:03:10;159.57;;;130.53;;
20067;SDS011;10194;50.824;7.134;2023-04-01T06:05:40;157.10;;;129.53;;
20067;SDS011;10194;50.824;7.134;2023-04-01T06:08:13;158.43;;;125.47;;
20067;SDS011;10194;50.824;7.134;2023-04-01T06:16:21;164.67;;;139.27;;
20067;SDS011;10194;50.824;7.134;2023-04-01T06:19:21;161.63;;;134.43;;
20067;SDS011;10194;50.824;7.134;2023-04-01T06:44:35;161.30;;;132.00;;
20067;SDS011;10194;50.824;7.134;2023-04-01T06:47:37;168.13;;;142.10;;
20067;SDS011;10194;50.824;7.134;2023-04-01T06:50:54;169.03;;;143.90;;
20067;SDS011;10194;50.824;7.134;2023-04-01T06:54:04;167.87;;;143.50;;
20067;SDS011;10194;50.824;7.134;2023-04-01T06:56:37;158.03;;;123.20;;
20067;SDS011;10194;50.824;7.134;2023-04-01T06:59:41;156.37;;;118.50;;
20067;SDS011;10194;50.824;7.134;2023-04-01T07:04:57;158.30;;;124.47;;
20067;SDS011;10194;50.824;7.134;2023-04-01T07:07:41;159.63;;;124.23;;
20067;SDS011;10194;50.824;7.134;2023-04-01T07:10:17;171.37;;;146.50;;
20067;SDS011;10194;50.824;7.134;2023-04-01T07:13:02;157.40;;;124.37;;
20067;SDS011;10194;50.824;7.134;2023-04-01T07:15:39;152.27;;;112.87;;
20067;SDS011;10194;50.824;7.134;2023-04-01T07:18:19;159.37;;;127.73;;
20067;SDS011;10194;50.824;7.134;2023-04-01T07:20:54;160.20;;;128.07;;
20067;SDS011;10194;50.824;7.134;2023-04-01T07:23:26;164.07;;;134.40;;
20067;SDS011;10194;50.824;7.134;2023-04-01T07:25:59;168.77;;;135.80;;
20067;SDS011;10194;50.824;7.134;2023-04-01T07:28:36;159.20;;;119.77;;
20067;SDS011;10194;50.824;7.134;2023-04-01T07:31:05;165.33;;;134.17;;
20067;SDS011;10194;50.824;7.134;2023-04-01T07:36:45;160.07;;;128.13;;
20067;SDS011;10194;50.824;7.134;2023-04-01T07:39:17;154.27;;;114.87;;
20067;SDS011;10194;50.824;7.134;2023-04-01T07:47:50;154.27;;;116.20;;
20067;SDS011;10194;50.824;7.134;2023-04-01T07:53:36;162.67;;;131.20;;
20067;SDS011;10194;50.824;7.134;2023-04-01T07:56:24;167.20;;;134.50;;
20067;SDS011;10194;50.824;7.134;2023-04-01T08:02:24;175.03;;;149.13;;
20067;SDS011;10194;50.824;7.134;2023-04-01T08:05:40;169.03;;;148.57;;
20067;SDS011;10194;50.824;7.134;2023-04-01T08:11:41;186.10;;;166.33;;
20067;SDS011;10194;50.824;7.134;2023-04-01T08:14:20;183.40;;;163.03;;
20067;SDS011;10194;50.824;7.134;2023-04-01T08:17:30;168.90;;;149.33;;
20067;SDS011;10194;50.824;7.134;2023-04-01T08:23:00;171.33;;;149.97;;
20067;SDS011;10194;50.824;7.134;2023-04-01T08:25:35;167.23;;;144.60;;
20067;SDS011;10194;50.824;7.134;2023-04-01T08:28:24;167.83;;;142.17;;
20067;SDS011;10194;50.824;7.134;2023-04-01T08:34:02;162.27;;;132.93;;
20067;SDS011;10194;50.824;7.134;2023-04-01T08:36:45;168.10;;;144.53;;
20067;SDS011;10194;50.824;7.134;2023-04-01T08:56:26;172.87;;;152.30;;
20067;SDS011;10194;50.824;7.134;2023-04-01T09:19:33;175.90;;;155.93;;
20067;SDS011;10194;50.824;7.134;2023-04-01T09:22:50;172.87;;;153.30;;
20067;SDS011;10194;50.824;7.134;2023-04-01T09:34:22;195.03;;;174.77;;
20067;SDS011;10194;50.824;7.134;2023-04-01T09:37:17;182.93;;;162.97;;
20067;SDS011;10194;50.824;7.134;2023-04-01T09:42:45;169.30;;;143.80;;
20067;SDS011;10194;50.824;7.134;2023-04-01T09:45:33;163.20;;;130.07;;
20067;SDS011;10194;50.824;7.134;2023-04-01T09:48:05;155.63;;;122.37;;
20067;SDS011;10194;50.824;7.134;2023-04-01T10:05:58;164.07;;;136.20;;
20067;SDS011;10194;50.824;7.134;2023-04-01T10:32:27;163.97;;;120.20;;
20067;SDS011;10194;50.824;7.134;2023-04-01T10:40:35;166.23;;;123.83;;
20067;SDS011;10194;50.824;7.134;2023-04-01T10:52:12;164.97;;;135.33;;
20067;SDS011;10194;50.824;7.134;2023-04-01T11:27:49;162.50;;;124.77;;
20067;SDS011;10194;50.824;7.134;2023-04-01T11:30:28;154.77;;;113.40;;
20067;SDS011;10194;50.824;7.134;2023-04-01T11:33:22;154.47;;;110.13;;
20067;SDS011;10194;50.824;7.134;2023-04-01T11:39:46;165.20;;;129.47;;
20067;SDS011;10194;50.824;7.134;2023-04-01T11:55:54;148.90;;;97.93;;
20067;SDS011;10194;50.824;7.134;2023-04-01T12:01:44;154.70;;;108.30;;
20067;SDS011;10194;50.824;7.134;2023-04-01T12:16:46;141.10;;;83.63;;
20067;SDS011;10194;50.824;7.134;2023-04-01T12:22:34;140.47;;;82.37;;
20067;SDS011;10194;50.824;7.134;2023-04-01T12:25:37;138.30;;;81.10;;
20067;SDS011;10194;50.824;7.134;2023-04-01T12:34:09;142.30;;;87.90;;
20067;SDS011;10194;50.824;7.134;2023-04-01T12:39:58;143.83;;;89.40;;
20067;SDS011;10194;50.824;7.134;2023-04-01T12:45:30;141.17;;;82.70;;
20067;SDS011;10194;50.824;7.134;2023-04-01T12:54:22;142.07;;;89.33;;
20067;SDS011;10194;50.824;7.134;2023-04-01T13:00:03;141.87;;;92.67;;
20067;SDS011;10194;50.824;7.134;2023-04-01T13:20:44;141.77;;;85.70;;
20067;SDS011;10194;50.824;7.134;2023-04-01T13:28:53;140.77;;;83.63;;
20067;SDS011;10194;50.824;7.134;2023-04-01T13:40:51;142.27;;;85.43;;
20067;SDS011;10194;50.824;7.134;2023-04-01T13:43:45;140.87;;;84.30;;
20067;SDS011;10194;50.824;7.134;2023-04-01T13:46:33;139.37;;;81.83;;
20067;SDS011;10194;50.824;7.134;2023-04-01T13:52:41;135.60;;;79.20;;
20067;SDS011;10194;50.824;7.134;2023-04-01T14:16:12;150.93;;;91.00;;
20067;SDS011;10194;50.824;7.134;2023-04-01T14:21:38;141.27;;;82.70;;
20067;SDS011;10194;50.824;7.134;2023-04-01T14:30:25;149.87;;;90.23;;
20067;SDS011;10194;50.824;7.134;2023-04-01T14:33:26;142.40;;;85.10;;
20067;SDS011;10194;50.824;7.134;2023-04-01T14:36:28;139.30;;;81.10;;
20067;SDS011;10194;50.824;7.134;2023-04-01T14:49:22;138.40;;;83.27;;
20067;SDS011;10194;50.824;7.134;2023-04-01T14:52:04;144.27;;;83.90;;
20067;SDS011;10194;50.824;7.134;2023-04-01T14:54:48;140.40;;;82.70;;
20067;SDS011;10194;50.824;7.134;2023-04-01T14:57:22;138.90;;;79.70;;
20067;SDS011;10194;50.824;7.134;2023-04-01T15:00:29;136.67;;;78.43;;
20067;SDS011;10194;50.824;7.134;2023-04-01T15:02:54;142.53;;;86.80;;
20067;SDS011;10194;50.824;7.134;2023-04-01T15:11:32;143.23;;;88.60;;
20067;SDS011;10194;50.824;7.134;2023-04-01T15:14:13;138.60;;;82.27;;
20067;SDS011;10194;50.824;7.134;2023-04-01T15:17:22;130.00;;;71.37;;
20067;SDS011;10194;50.824;7.134;2023-04-01T15:31:29;138.47;;;79.50;;
20067;SDS011;10194;50.824;7.134;2023-04-01T15:39:58;139.73;;;77.83;;
20067;SDS011;10194;50.824;7.134;2023-04-01T15:56:25;141.03;;;77.57;;
20067;SDS011;10194;50.824;7.134;2023-04-01T16:18:19;146.73;;;88.73;;
20067;SDS011;10194;50.824;7.134;2023-04-01T16:20:55;142.87;;;90.03;;
20067;SDS011;10194;50.824;7.134;2023-04-01T16:23:37;141.27;;;87.13;;
20067;SDS011;10194;50.824;7.134;2023-04-01T16:26:18;141.17;;;83.37;;
20067;SDS011;10194;50.824;7.134;2023-04-01T16:29:41;145.87;;;89.37;;
20067;SDS011;10194;50.824;7.134;2023-04-01T16:35:01;139.93;;;84.10;;
20067;SDS011;10194;50.824;7.134;2023-04-01T16:37:38;138.90;;;83.83;;
20067;SDS011;10194;50.824;7.134;2023-04-01T16:46:36;148.37;;;89.83;;
20067;SDS011;10194;50.824;7.134;2023-04-01T16:54:35;149.33;;;97.40;;
20067;SDS011;10194;50.824;7.134;2023-04-01T16:57:03;144.43;;;90.80;;
20067;SDS011;10194;50.824;7.134;2023-04-01T16:59:36;142.50;;;88.70;;
20067;SDS011;10194;50.824;7.134;2023-04-01T17:02:10;143.43;;;87.90;;
20067;SDS011;10194;50.824;7.134;2023-04-01T17:10:17;149.27;;;99.83;;
20067;SDS011;10194;50.824;7.134;2023-04-01T17:30:08;158.13;;;124.30;;
20067;SDS011;10194;50.824;7.134;2023-04-01T17:35:57;165.57;;;132.97;;
20067;SDS011;10194;50.824;7.134;2023-04-01T17:47:27;152.60;;;113.50;;
20067;SDS011;10194;50.824;7.134;2023-04-01T17:50:15;157.63;;;121.73;;
20067;SDS011;10194;50.824;7.134;2023-04-01T17:56:09;162.03;;;108.47;;
20067;SDS011;10194;50.824;7.134;2023-04-01T18:04:57;149.87;;;107.30;;
20067;SDS011;10194;50.824;7.134;2023-04-01T18:08:15;153.67;;;109.53;;
20067;SDS011;10194;50.824;7.134;2023-04-01T18:16:27;147.70;;;108.63;;
20067;SDS011;10194;50.824;7.134;2023-04-01T18:19:03;154.60;;;121.60;;
20067;SDS011;10194;50.824;7.134;2023-04-01T18:24:32;161.90;;;133.87;;
20067;SDS011;10194;50.824;7.134;2023-04-01T18:29:54;167.43;;;141.57;;
20067;SDS011;10194;50.824;7.134;2023-04-01T18:32:36;162.20;;;136.63;;
20067;SDS011;10194;50.824;7.134;2023-04-01T18:38:17;162.97;;;136.33;;
20067;SDS011;10194;50.824;7.134;2023-04-01T18:41:10;156.77;;;124.33;;
20067;SDS011;10194;50.824;7.134;2023-04-01T18:49:16;154.90;;;120.10;;
20067;SDS011;10194;50.824;7.134;2023-04-01T18:51:56;159.23;;;129.50;;
20067;SDS011;10194;50.824;7.134;2023-04-01T18:54:33;142.17;;;92.47;;
20067;SDS011;10194;50.824;7.134;2023-04-01T18:57:13;145.10;;;99.50;;
20067;SDS011;10194;50.824;7.134;2023-04-01T18:59:42;157.43;;;123.23;;
20067;SDS011;10194;50.824;7.134;2023-04-01T19:02:27;157.13;;;117.77;;
20067;SDS011;10194;50.824;7.134;2023-04-01T19:13:38;161.60;;;127.87;;
20067;SDS011;10194;50.824;7.134;2023-04-01T19:27:27;168.57;;;135.17;;
20067;SDS011;10194;50.824;7.134;2023-04-01T19:35:47;168.93;;;140.33;;
20067;SDS011;10194;50.824;7.134;2023-04-01T19:49:42;169.70;;;138.77;;
20067;SDS011;10194;50.824;7.134;2023-04-01T19:52:37;170.70;;;142.77;;
20067;SDS011;10194;50.824;7.134;2023-04-01T19:55:25;174.00;;;148.97;;
20067;SDS011;10194;50.824;7.134;2023-04-01T20:00:49;174.53;;;151.80;;
20067;SDS011;10194;50.824;7.134;2023-04-01T20:14:48;174.40;;;146.53;;
20067;SDS011;10194;50.824;7.134;2023-04-01T20:17:19;163.87;;;124.50;;
20067;SDS011;10194;50.824;7.134;2023-04-01T20:25:22;167.37;;;138.20;;
20067;SDS011;10194;50.824;7.134;2023-04-01T20:28:05;169.30;;;141.03;;
20067;SDS011;10194;50.824;7.134;2023-04-01T20:36:21;156.27;;;116.30;;
20067;SDS011;10194;50.824;7.134;2023-04-01T20:45:15;161.83;;;128.17;;
20067;SDS011;10194;50.824;7.134;2023-04-01T20:51:14;168.30;;;138.30;;
20067;SDS011;10194;50.824;7.134;2023-04-01T21:13:55;163.57;;;128.77;;
20067;SDS011;10194;50.824;7.134;2023-04-01T21:22:35;163.83;;;128.77;;
20067;SDS011;10194;50.824;7.134;2023-04-01T21:28:09;162.17;;;129.90;;
20067;SDS011;10194;50.824;7.134;2023-04-01T21:43:17;167.30;;;137.53;;
20067;SDS011;10194;50.824;7.134;2023-04-01T21:49:55;170.73;;;145.60;;
20067;SDS011;10194;50.824;7.134;2023-04-01T21:52:48;164.33;;;137.03;;
20067;SDS011;10194;50.824;7.134;2023-04-01T22:01:58;161.03;;;130.37;;
20067;SDS011;10194;50.824;7.134;2023-04-01T22:05:07;163.03;;;134.93;;
20067;SDS011;10194;50.824;7.134;2023-04-01T22:11:58;158.97;;;125.77;;
20067;SDS011;10194;50.824;7.134;2023-04-01T22:14:05;156.23;;;119.90;;
20067;SDS011;10194;50.824;7.134;2023-04-01T22:16:50;154.80;;;114.33;;
20067;SDS011;10194;50.824;7.134;2023-04-01T22:22:49;152.17;;;114.37;;
20067;SDS011;10194;50.824;7.134;2023-04-01T22:28:30;149.57;;;105.90;;
20067;SDS011;10194;50.824;7.134;2023-04-01T22:31:19;149.97;;;105.90;;
20067;SDS011;10194;50.824;7.134;2023-04-01T22:34:08;149.23;;;103.47;;
20067;SDS011;10194;50.824;7.134;2023-04-01T22:39:57;152.33;;;111.50;;
20067;SDS011;10194;50.824;7.134;2023-04-01T22:42:32;153.17;;;114.33;;
20067;SDS011;10194;50.824;7.134;2023-04-01T22:54:04;160.27;;;126.43;;
20067;SDS011;10194;50.824;7.134;2023-04-01T22:56:53;162.17;;;130.23;;
20067;SDS011;10194;50.824;7.134;2023-04-01T23:02:21;157.00;;;120.30;;
20067;SDS011;10194;50.824;7.134;2023-04-01T23:04:55;164.17;;;133.13;;
20067;SDS011;10194;50.824;7.134;2023-04-01T23:12:58;187.83;;;167.70;;
20067;SDS011;10194;50.824;7.134;2023-04-01T23:15:26;188.50;;;168.03;;
20067;SDS011;10194;50.824;7.134;2023-04-01T23:17:56;190.80;;;170.80;;
20067;SDS011;10194;50.824;7.134;2023-04-01T23:23:51;207.03;;;186.00;;
20067;SDS011;10194;50.824;7.134;2023-04-01T23:26:39;207.43;;;186.40;;
20067;SDS011;10194;50.824;7.134;2023-04-01T23:29:24;191.67;;;171.43;;
20067;SDS011;10194;50.824;7.134;2023-04-01T23:32:02;204.93;;;184.17;;
20067;SDS011;10194;50.824;7.134;2023-04-01T23:34:32;200.33;;;179.77;;
20067;SDS011;10194;50.824;7.134;2023-04-01T23:39:48;202.27;;;181.40;;
20067;SDS011;10194;50.824;7.134;2023-04-01T23:42:27;207.63;;;186.17;;
20067;SDS011;10194;50.824;7.134;2023-04-01T23:44:57;198.03;;;177.47;;
20067;SDS011;10194;50.824;7.134;2023-04-01T23:47:28;193.17;;;172.87;;
20067;SDS011;10194;50.824;7.134;2023-04-01T23:50:01;191.63;;;171.37;;
20067;SDS011;10194;50.824;7.134;2023-04-01T23:52:35;187.87;;;168.03;;
